Terminal Aerodrome Forecast
Issued by NWS

Current Version | Previous Version | Text Only | Print | Product List | Glossary On
Versions: 1 2 3 4 5 6 7 8 9 10 11 12 13 14 15 16 17 18 19 20
651
FTUS41 KGYX 302321
TAFPSM
TAF
KPSM 302321Z 0100/0124 05009KT P6SM -SHRA SCT025 BKN050 OVC100
      TEMPO 0101/0105 5SM -SHRA BR BKN025
     FM010500 04009KT P6SM SCT015 OVC025=

USA.gov is the U.S. government's official web portal to all federal, state and local government web resources and services.